sensor_id;sensor_type;location;lat;lon;timestamp;pressure;altitude;pressure_sealevel;temperature;humidity
27334;BME280;14817;57.104;-2.094;2023-04-22T00:02:14;100774.06;;;5.77;100.00
27334;BME280;14817;57.104;-2.094;2023-04-22T00:04:42;100773.59;;;5.83;100.00
27334;BME280;14817;57.104;-2.094;2023-04-22T00:07:14;100764.25;;;5.78;100.00
27334;BME280;14817;57.104;-2.094;2023-04-22T00:09:41;100761.84;;;5.75;100.00
27334;BME280;14817;57.104;-2.094;2023-04-22T00:12:08;100761.84;;;5.75;100.00
27334;BME280;14817;57.104;-2.094;2023-04-22T00:14:37;100754.38;;;5.80;100.00
27334;BME280;14817;57.104;-2.094;2023-04-22T00:17:04;100749.66;;;5.72;100.00
27334;BME280;14817;57.104;-2.094;2023-04-22T00:19:33;100736.38;;;5.83;100.00
27334;BME280;14817;57.104;-2.094;2023-04-22T00:22:00;100742.16;;;5.77;100.00
27334;BME280;14817;57.104;-2.094;2023-04-22T00:24:28;100730.56;;;5.78;100.00
27334;BME280;14817;57.104;-2.094;2023-04-22T00:26:55;100733.38;;;5.88;100.00
27334;BME280;14817;57.104;-2.094;2023-04-22T00:29:23;100734.03;;;6.03;100.00
27334;BME280;14817;57.104;-2.094;2023-04-22T00:31:50;100730.19;;;6.07;100.00
27334;BME280;14817;57.104;-2.094;2023-04-22T00:34:17;100728.53;;;6.17;100.00
27334;BME280;14817;57.104;-2.094;2023-04-22T00:36:44;100726.94;;;6.15;100.00
27334;BME280;14817;57.104;-2.094;2023-04-22T00:39:11;100727.19;;;6.23;100.00
27334;BME280;14817;57.104;-2.094;2023-04-22T00:41:38;100725.50;;;6.22;100.00
27334;BME280;14817;57.104;-2.094;2023-04-22T00:44:09;100720.28;;;6.09;100.00
27334;BME280;14817;57.104;-2.094;2023-04-22T00:46:37;100715.31;;;6.04;100.00
27334;BME280;14817;57.104;-2.094;2023-04-22T00:49:06;100716.44;;;6.13;100.00
27334;BME280;14817;57.104;-2.094;2023-04-22T00:51:33;100699.63;;;6.12;100.00
27334;BME280;14817;57.104;-2.094;2023-04-22T00:54:00;100712.31;;;6.09;100.00
27334;BME280;14817;57.104;-2.094;2023-04-22T00:56:28;100709.53;;;6.10;100.00
27334;BME280;14817;57.104;-2.094;2023-04-22T00:58:57;100701.66;;;6.20;100.00
27334;BME280;14817;57.104;-2.094;2023-04-22T01:01:25;100695.63;;;5.96;100.00
27334;BME280;14817;57.104;-2.094;2023-04-22T01:03:52;100691.88;;;6.21;100.00
27334;BME280;14817;57.104;-2.094;2023-04-22T01:06:21;100690.78;;;6.12;100.00
27334;BME280;14817;57.104;-2.094;2023-04-22T01:08:49;100683.78;;;6.00;100.00
27334;BME280;14817;57.104;-2.094;2023-04-22T01:11:17;100685.56;;;5.99;100.00
27334;BME280;14817;57.104;-2.094;2023-04-22T01:13:44;100678.13;;;5.80;100.00
27334;BME280;14817;57.104;-2.094;2023-04-22T01:16:11;100674.16;;;5.75;100.00
27334;BME280;14817;57.104;-2.094;2023-04-22T01:18:38;100676.72;;;5.76;100.00
27334;BME280;14817;57.104;-2.094;2023-04-22T01:21:05;100671.41;;;5.76;100.00
27334;BME280;14817;57.104;-2.094;2023-04-22T01:23:32;100665.09;;;5.77;100.00
27334;BME280;14817;57.104;-2.094;2023-04-22T01:26:01;100656.91;;;5.91;100.00
27334;BME280;14817;57.104;-2.094;2023-04-22T01:28:28;100653.03;;;5.84;100.00
27334;BME280;14817;57.104;-2.094;2023-04-22T01:30:58;100646.75;;;5.85;100.00
27334;BME280;14817;57.104;-2.094;2023-04-22T01:33:25;100648.72;;;5.95;100.00
27334;BME280;14817;57.104;-2.094;2023-04-22T01:35:52;100654.09;;;5.82;100.00
27334;BME280;14817;57.104;-2.094;2023-04-22T01:38:19;100650.38;;;5.84;100.00
27334;BME280;14817;57.104;-2.094;2023-04-22T01:40:46;100644.72;;;5.89;100.00
27334;BME280;14817;57.104;-2.094;2023-04-22T01:43:12;100643.13;;;5.86;100.00
27334;BME280;14817;57.104;-2.094;2023-04-22T01:45:39;100639.00;;;5.82;100.00
27334;BME280;14817;57.104;-2.094;2023-04-22T01:48:06;100634.22;;;5.99;100.00
27334;BME280;14817;57.104;-2.094;2023-04-22T01:50:33;100635.25;;;5.73;100.00
27334;BME280;14817;57.104;-2.094;2023-04-22T01:53:00;100638.53;;;5.77;100.00
27334;BME280;14817;57.104;-2.094;2023-04-22T01:55:27;100629.09;;;5.73;100.00
27334;BME280;14817;57.104;-2.094;2023-04-22T01:57:54;100634.41;;;5.62;100.00
27334;BME280;14817;57.104;-2.094;2023-04-22T02:00:21;100624.00;;;5.59;100.00
27334;BME280;14817;57.104;-2.094;2023-04-22T02:02:48;100621.84;;;5.64;100.00
27334;BME280;14817;57.104;-2.094;2023-04-22T02:05:16;100613.03;;;5.63;100.00
27334;BME280;14817;57.104;-2.094;2023-04-22T02:07:44;100623.16;;;5.69;100.00
27334;BME280;14817;57.104;-2.094;2023-04-22T02:10:15;100616.50;;;5.52;100.00
27334;BME280;14817;57.104;-2.094;2023-04-22T02:12:41;100610.50;;;5.62;100.00
27334;BME280;14817;57.104;-2.094;2023-04-22T02:15:09;100612.41;;;5.60;100.00
27334;BME280;14817;57.104;-2.094;2023-04-22T02:17:36;100607.00;;;5.61;100.00
27334;BME280;14817;57.104;-2.094;2023-04-22T02:20:04;100605.53;;;5.68;100.00
27334;BME280;14817;57.104;-2.094;2023-04-22T02:22:32;100608.09;;;5.70;100.00
27334;BME280;14817;57.104;-2.094;2023-04-22T02:24:58;100607.38;;;5.68;100.00
27334;BME280;14817;57.104;-2.094;2023-04-22T02:27:26;100596.00;;;5.66;100.00
27334;BME280;14817;57.104;-2.094;2023-04-22T02:29:53;100591.53;;;5.66;100.00
27334;BME280;14817;57.104;-2.094;2023-04-22T02:32:20;100584.03;;;5.71;100.00
27334;BME280;14817;57.104;-2.094;2023-04-22T02:34:47;100585.22;;;5.45;100.00
27334;BME280;14817;57.104;-2.094;2023-04-22T02:37:14;100574.13;;;5.51;100.00
27334;BME280;14817;57.104;-2.094;2023-04-22T02:39:45;100567.84;;;5.52;100.00
27334;BME280;14817;57.104;-2.094;2023-04-22T02:42:14;100565.31;;;5.62;100.00
27334;BME280;14817;57.104;-2.094;2023-04-22T02:44:41;100569.91;;;5.48;100.00
27334;BME280;14817;57.104;-2.094;2023-04-22T02:47:08;100561.69;;;5.40;100.00
27334;BME280;14817;57.104;-2.094;2023-04-22T02:49:34;100562.16;;;5.45;100.00
27334;BME280;14817;57.104;-2.094;2023-04-22T02:52:04;100559.03;;;5.40;100.00
27334;BME280;14817;57.104;-2.094;2023-04-22T02:54:33;100559.75;;;5.53;100.00
27334;BME280;14817;57.104;-2.094;2023-04-22T02:57:00;100557.31;;;5.39;100.00
27334;BME280;14817;57.104;-2.094;2023-04-22T02:59:30;100550.06;;;5.41;100.00
27334;BME280;14817;57.104;-2.094;2023-04-22T03:01:58;100551.16;;;5.50;100.00
27334;BME280;14817;57.104;-2.094;2023-04-22T03:04:45;100538.00;;;5.37;100.00
27334;BME280;14817;57.104;-2.094;2023-04-22T03:07:11;100539.09;;;5.46;100.00
27334;BME280;14817;57.104;-2.094;2023-04-22T03:09:38;100532.94;;;5.34;100.00
27334;BME280;14817;57.104;-2.094;2023-04-22T03:12:05;100525.34;;;5.41;100.00
27334;BME280;14817;57.104;-2.094;2023-04-22T03:14:32;100515.56;;;5.41;100.00
27334;BME280;14817;57.104;-2.094;2023-04-22T03:16:59;100508.06;;;5.35;100.00
27334;BME280;14817;57.104;-2.094;2023-04-22T03:19:26;100501.06;;;5.45;100.00
27334;BME280;14817;57.104;-2.094;2023-04-22T03:21:53;100499.97;;;5.48;100.00
27334;BME280;14817;57.104;-2.094;2023-04-22T03:24:21;100488.63;;;5.46;100.00
27334;BME280;14817;57.104;-2.094;2023-04-22T03:26:50;100488.78;;;5.44;100.00
27334;BME280;14817;57.104;-2.094;2023-04-22T03:29:17;100480.56;;;5.36;100.00
27334;BME280;14817;57.104;-2.094;2023-04-22T03:31:44;100472.09;;;5.42;100.00
27334;BME280;14817;57.104;-2.094;2023-04-22T03:34:11;100469.44;;;5.42;100.00
27334;BME280;14817;57.104;-2.094;2023-04-22T03:36:39;100459.56;;;5.44;100.00
27334;BME280;14817;57.104;-2.094;2023-04-22T03:39:06;100447.34;;;5.42;100.00
27334;BME280;14817;57.104;-2.094;2023-04-22T03:41:37;100451.34;;;5.47;100.00
27334;BME280;14817;57.104;-2.094;2023-04-22T03:44:04;100436.59;;;5.43;100.00
27334;BME280;14817;57.104;-2.094;2023-04-22T03:46:32;100433.00;;;5.44;100.00
27334;BME280;14817;57.104;-2.094;2023-04-22T03:49:10;100431.28;;;5.55;100.00
27334;BME280;14817;57.104;-2.094;2023-04-22T03:51:37;100415.34;;;5.43;100.00
27334;BME280;14817;57.104;-2.094;2023-04-22T03:54:09;100420.31;;;5.59;100.00
27334;BME280;14817;57.104;-2.094;2023-04-22T03:56:43;100410.78;;;5.45;100.00
27334;BME280;14817;57.104;-2.094;2023-04-22T03:59:10;100407.66;;;5.40;100.00
27334;BME280;14817;57.104;-2.094;2023-04-22T04:01:36;100405.84;;;5.41;100.00
27334;BME280;14817;57.104;-2.094;2023-04-22T04:04:06;100413.06;;;5.39;100.00
27334;BME280;14817;57.104;-2.094;2023-04-22T04:06:47;100398.81;;;5.40;100.00
27334;BME280;14817;57.104;-2.094;2023-04-22T04:09:14;100393.38;;;5.41;100.00
27334;BME280;14817;57.104;-2.094;2023-04-22T04:11:40;100395.22;;;5.41;100.00
27334;BME280;14817;57.104;-2.094;2023-04-22T04:14:08;100390.72;;;5.41;100.00
27334;BME280;14817;57.104;-2.094;2023-04-22T04:16:44;100387.38;;;5.50;100.00
27334;BME280;14817;57.104;-2.094;2023-04-22T04:19:32;100372.63;;;5.46;100.00
27334;BME280;14817;57.104;-2.094;2023-04-22T04:21:59;100376.97;;;5.47;100.00
27334;BME280;14817;57.104;-2.094;2023-04-22T04:24:31;100378.28;;;5.53;100.00
27334;BME280;14817;57.104;-2.094;2023-04-22T04:27:05;100380.56;;;5.58;100.00
27334;BME280;14817;57.104;-2.094;2023-04-22T04:29:39;100382.66;;;5.43;100.00
27334;BME280;14817;57.104;-2.094;2023-04-22T04:32:12;100364.28;;;5.51;100.00
27334;BME280;14817;57.104;-2.094;2023-04-22T04:34:40;100361.25;;;5.56;100.00
27334;BME280;14817;57.104;-2.094;2023-04-22T04:37:08;100357.28;;;5.50;100.00
27334;BME280;14817;57.104;-2.094;2023-04-22T04:39:54;100353.66;;;5.51;100.00
27334;BME280;14817;57.104;-2.094;2023-04-22T04:42:24;100355.13;;;5.55;100.00
27334;BME280;14817;57.104;-2.094;2023-04-22T04:44:58;100348.81;;;5.56;100.00
27334;BME280;14817;57.104;-2.094;2023-04-22T04:47:26;100350.19;;;5.50;100.00
27334;BME280;14817;57.104;-2.094;2023-04-22T04:50:00;100342.22;;;5.50;100.00
27334;BME280;14817;57.104;-2.094;2023-04-22T04:52:31;100339.56;;;5.50;100.00
27334;BME280;14817;57.104;-2.094;2023-04-22T04:54:58;100334.44;;;5.59;100.00
27334;BME280;14817;57.104;-2.094;2023-04-22T04:57:25;100329.38;;;5.56;100.00
27334;BME280;14817;57.104;-2.094;2023-04-22T04:59:52;100323.81;;;5.59;100.00
27334;BME280;14817;57.104;-2.094;2023-04-22T05:02:20;100321.66;;;5.52;100.00
27334;BME280;14817;57.104;-2.094;2023-04-22T05:04:47;100318.00;;;5.65;100.00
27334;BME280;14817;57.104;-2.094;2023-04-22T05:07:15;100320.66;;;5.65;100.00
27334;BME280;14817;57.104;-2.094;2023-04-22T05:09:43;100317.44;;;5.61;100.00
27334;BME280;14817;57.104;-2.094;2023-04-22T05:12:11;100306.66;;;5.63;100.00
27334;BME280;14817;57.104;-2.094;2023-04-22T05:14:38;100311.00;;;5.64;100.00
27334;BME280;14817;57.104;-2.094;2023-04-22T05:17:06;100300.38;;;5.64;100.00
27334;BME280;14817;57.104;-2.094;2023-04-22T05:19:33;100307.13;;;5.68;100.00
27334;BME280;14817;57.104;-2.094;2023-04-22T05:22:01;100299.63;;;5.73;100.00
27334;BME280;14817;57.104;-2.094;2023-04-22T05:24:28;100300.22;;;5.77;100.00
27334;BME280;14817;57.104;-2.094;2023-04-22T05:26:57;100294.53;;;5.81;100.00
27334;BME280;14817;57.104;-2.094;2023-04-22T05:29:24;100295.94;;;5.85;100.00
27334;BME280;14817;57.104;-2.094;2023-04-22T05:31:51;100295.28;;;5.93;100.00
27334;BME280;14817;57.104;-2.094;2023-04-22T05:34:21;100298.59;;;5.85;100.00
27334;BME280;14817;57.104;-2.094;2023-04-22T05:36:48;100287.00;;;5.98;100.00
27334;BME280;14817;57.104;-2.094;2023-04-22T05:39:15;100291.75;;;6.04;100.00
27334;BME280;14817;57.104;-2.094;2023-04-22T05:41:42;100284.38;;;6.07;100.00
27334;BME280;14817;57.104;-2.094;2023-04-22T05:44:12;100279.19;;;6.06;100.00
27334;BME280;14817;57.104;-2.094;2023-04-22T05:46:41;100283.63;;;6.17;100.00
27334;BME280;14817;57.104;-2.094;2023-04-22T05:49:08;100286.09;;;6.29;100.00
27334;BME280;14817;57.104;-2.094;2023-04-22T05:51:53;100289.72;;;6.28;100.00
27334;BME280;14817;57.104;-2.094;2023-04-22T05:54:25;100279.47;;;6.03;100.00
27334;BME280;14817;57.104;-2.094;2023-04-22T05:56:52;100279.41;;;6.14;100.00
27334;BME280;14817;57.104;-2.094;2023-04-22T05:59:24;100279.91;;;6.29;100.00
27334;BME280;14817;57.104;-2.094;2023-04-22T06:01:51;100274.97;;;6.24;100.00
27334;BME280;14817;57.104;-2.094;2023-04-22T06:04:19;100284.19;;;6.20;100.00
27334;BME280;14817;57.104;-2.094;2023-04-22T06:06:46;100290.31;;;6.11;100.00
27334;BME280;14817;57.104;-2.094;2023-04-22T06:09:13;100299.19;;;6.21;100.00
27334;BME280;14817;57.104;-2.094;2023-04-22T06:11:40;100284.72;;;6.14;100.00
27334;BME280;14817;57.104;-2.094;2023-04-22T06:14:12;100278.25;;;6.28;100.00
27334;BME280;14817;57.104;-2.094;2023-04-22T06:16:41;100273.94;;;6.37;100.00
27334;BME280;14817;57.104;-2.094;2023-04-22T06:19:08;100256.28;;;6.36;100.00
27334;BME280;14817;57.104;-2.094;2023-04-22T06:21:36;100248.25;;;6.47;100.00
27334;BME280;14817;57.104;-2.094;2023-04-22T06:24:05;100241.28;;;6.56;100.00
27334;BME280;14817;57.104;-2.094;2023-04-22T06:26:32;100224.25;;;6.78;100.00
27334;BME280;14817;57.104;-2.094;2023-04-22T06:28:59;100235.91;;;6.86;100.00
27334;BME280;14817;57.104;-2.094;2023-04-22T06:31:28;100222.19;;;6.91;100.00
27334;BME280;14817;57.104;-2.094;2023-04-22T06:33:55;100216.72;;;6.83;100.00
27334;BME280;14817;57.104;-2.094;2023-04-22T06:36:28;100217.19;;;7.07;100.00
27334;BME280;14817;57.104;-2.094;2023-04-22T06:39:00;100211.50;;;7.61;100.00
27334;BME280;14817;57.104;-2.094;2023-04-22T06:41:42;100207.66;;;7.83;100.00
27334;BME280;14817;57.104;-2.094;2023-04-22T06:44:31;100203.59;;;7.88;100.00
27334;BME280;14817;57.104;-2.094;2023-04-22T06:47:19;100197.44;;;8.45;100.00
27334;BME280;14817;57.104;-2.094;2023-04-22T06:49:58;100201.88;;;9.09;100.00
27334;BME280;14817;57.104;-2.094;2023-04-22T06:52:38;100203.66;;;9.36;100.00
27334;BME280;14817;57.104;-2.094;2023-04-22T06:55:05;100194.09;;;9.70;100.00
27334;BME280;14817;57.104;-2.094;2023-04-22T06:57:31;100194.44;;;9.75;100.00
27334;BME280;14817;57.104;-2.094;2023-04-22T07:00:05;100184.94;;;9.54;100.00
27334;BME280;14817;57.104;-2.094;2023-04-22T07:02:36;100175.31;;;9.26;100.00
27334;BME280;14817;57.104;-2.094;2023-04-22T07:05:03;100173.78;;;10.03;100.00
27334;BME280;14817;57.104;-2.094;2023-04-22T07:07:30;100170.13;;;9.42;100.00
27334;BME280;14817;57.104;-2.094;2023-04-22T07:09:57;100167.09;;;8.36;100.00
27334;BME280;14817;57.104;-2.094;2023-04-22T07:12:29;100167.31;;;8.62;100.00
27334;BME280;14817;57.104;-2.094;2023-04-22T07:14:56;100167.63;;;8.12;100.00
27334;BME280;14817;57.104;-2.094;2023-04-22T07:17:22;100176.56;;;7.73;100.00
27334;BME280;14817;57.104;-2.094;2023-04-22T07:19:49;100167.69;;;7.92;100.00
27334;BME280;14817;57.104;-2.094;2023-04-22T07:22:16;100167.56;;;8.87;100.00
27334;BME280;14817;57.104;-2.094;2023-04-22T07:24:43;100157.69;;;9.77;100.00
27334;BME280;14817;57.104;-2.094;2023-04-22T07:27:09;100157.59;;;10.13;100.00
27334;BME280;14817;57.104;-2.094;2023-04-22T07:29:36;100144.56;;;11.03;100.00
27334;BME280;14817;57.104;-2.094;2023-04-22T07:32:03;100140.31;;;10.68;100.00
27334;BME280;14817;57.104;-2.094;2023-04-22T07:34:30;100139.75;;;11.07;100.00
27334;BME280;14817;57.104;-2.094;2023-04-22T07:36:57;100140.75;;;9.68;100.00
27334;BME280;14817;57.104;-2.094;2023-04-22T07:39:25;100138.25;;;9.67;100.00
27334;BME280;14817;57.104;-2.094;2023-04-22T07:41:52;100135.75;;;10.26;100.00
27334;BME280;14817;57.104;-2.094;2023-04-22T07:44:19;100134.63;;;10.02;100.00
27334;BME280;14817;57.104;-2.094;2023-04-22T07:46:47;100135.25;;;9.70;100.00
27334;BME280;14817;57.104;-2.094;2023-04-22T07:49:14;100137.22;;;9.24;100.00
27334;BME280;14817;57.104;-2.094;2023-04-22T07:51:43;100120.50;;;9.39;100.00
27334;BME280;14817;57.104;-2.094;2023-04-22T07:54:10;100121.09;;;9.51;100.00
27334;BME280;14817;57.104;-2.094;2023-04-22T07:56:36;100118.53;;;10.28;100.00
27334;BME280;14817;57.104;-2.094;2023-04-22T07:59:03;100108.97;;;10.52;100.00
27334;BME280;14817;57.104;-2.094;2023-04-22T08:01:30;100111.59;;;11.52;100.00
27334;BME280;14817;57.104;-2.094;2023-04-22T08:03:57;100108.38;;;12.45;100.00
27334;BME280;14817;57.104;-2.094;2023-04-22T08:06:24;100098.44;;;12.54;100.00
27334;BME280;14817;57.104;-2.094;2023-04-22T08:08:51;100089.97;;;13.19;100.00
27334;BME280;14817;57.104;-2.094;2023-04-22T08:11:17;100094.84;;;11.91;100.00
27334;BME280;14817;57.104;-2.094;2023-04-22T08:13:44;100078.03;;;12.44;100.00
27334;BME280;14817;57.104;-2.094;2023-04-22T08:16:11;100077.28;;;13.51;100.00
27334;BME280;14817;57.104;-2.094;2023-04-22T08:18:39;100078.19;;;13.43;100.00
27334;BME280;14817;57.104;-2.094;2023-04-22T08:21:06;100068.41;;;13.95;100.00
27334;BME280;14817;57.104;-2.094;2023-04-22T08:23:33;100066.03;;;13.47;100.00
27334;BME280;14817;57.104;-2.094;2023-04-22T08:26:00;100063.72;;;12.75;100.00
27334;BME280;14817;57.104;-2.094;2023-04-22T08:28:26;100062.34;;;12.79;100.00
27334;BME280;14817;57.104;-2.094;2023-04-22T08:30:53;100059.84;;;13.01;100.00
27334;BME280;14817;57.104;-2.094;2023-04-22T08:33:20;100057.47;;;13.82;100.00
27334;BME280;14817;57.104;-2.094;2023-04-22T08:35:47;100051.59;;;14.74;100.00
27334;BME280;14817;57.104;-2.094;2023-04-22T08:38:13;100058.50;;;13.81;100.00
27334;BME280;14817;57.104;-2.094;2023-04-22T08:40:41;100055.13;;;13.26;100.00
27334;BME280;14817;57.104;-2.094;2023-04-22T08:43:08;100052.91;;;13.82;100.00
27334;BME280;14817;57.104;-2.094;2023-04-22T08:45:38;100039.50;;;14.70;100.00
27334;BME280;14817;57.104;-2.094;2023-04-22T08:48:08;100026.69;;;14.72;100.00
27334;BME280;14817;57.104;-2.094;2023-04-22T08:50:36;100031.81;;;14.30;100.00
27334;BME280;14817;57.104;-2.094;2023-04-22T08:53:05;100024.66;;;14.23;100.00
27334;BME280;14817;57.104;-2.094;2023-04-22T08:55:33;100025.53;;;14.08;100.00
27334;BME280;14817;57.104;-2.094;2023-04-22T08:58:03;100018.56;;;13.99;100.00
27334;BME280;14817;57.104;-2.094;2023-04-22T09:00:32;100006.88;;;15.29;100.00
27334;BME280;14817;57.104;-2.094;2023-04-22T09:03:01;100014.94;;;14.80;100.00
27334;BME280;14817;57.104;-2.094;2023-04-22T09:05:32;99989.56;;;14.53;100.00
27334;BME280;14817;57.104;-2.094;2023-04-22T09:07:59;99988.66;;;14.45;100.00
27334;BME280;14817;57.104;-2.094;2023-04-22T09:10:26;99982.00;;;13.75;100.00
27334;BME280;14817;57.104;-2.094;2023-04-22T09:12:54;99985.75;;;14.62;100.00
27334;BME280;14817;57.104;-2.094;2023-04-22T09:15:22;99973.63;;;14.15;100.00
27334;BME280;14817;57.104;-2.094;2023-04-22T09:17:50;99982.19;;;14.25;100.00
27334;BME280;14817;57.104;-2.094;2023-04-22T09:20:17;99979.66;;;14.17;100.00
27334;BME280;14817;57.104;-2.094;2023-04-22T09:22:47;99974.84;;;14.92;100.00
27334;BME280;14817;57.104;-2.094;2023-04-22T09:25:19;99968.00;;;14.53;100.00
27334;BME280;14817;57.104;-2.094;2023-04-22T09:27:48;99972.44;;;15.31;100.00
27334;BME280;14817;57.104;-2.094;2023-04-22T09:30:16;99970.59;;;14.61;100.00
27334;BME280;14817;57.104;-2.094;2023-04-22T09:32:51;99960.22;;;14.79;100.00
27334;BME280;14817;57.104;-2.094;2023-04-22T09:35:25;99952.38;;;14.05;100.00
27334;BME280;14817;57.104;-2.094;2023-04-22T09:37:53;99951.59;;;14.90;100.00
27334;BME280;14817;57.104;-2.094;2023-04-22T09:40:20;99954.50;;;14.31;100.00
27334;BME280;14817;57.104;-2.094;2023-04-22T09:42:52;99962.66;;;14.38;100.00
27334;BME280;14817;57.104;-2.094;2023-04-22T09:48:01;99959.28;;;14.72;100.00
27334;BME280;14817;57.104;-2.094;2023-04-22T09:50:29;99951.28;;;14.57;100.00
27334;BME280;14817;57.104;-2.094;2023-04-22T09:53:01;99948.22;;;14.24;100.00
27334;BME280;14817;57.104;-2.094;2023-04-22T09:55:30;99949.53;;;13.92;100.00
27334;BME280;14817;57.104;-2.094;2023-04-22T09:57:57;99933.38;;;14.49;100.00
27334;BME280;14817;57.104;-2.094;2023-04-22T10:00:29;99936.69;;;14.30;100.00
27334;BME280;14817;57.104;-2.094;2023-04-22T10:02:56;99922.56;;;14.64;100.00
27334;BME280;14817;57.104;-2.094;2023-04-22T10:05:23;99925.66;;;13.74;100.00
27334;BME280;14817;57.104;-2.094;2023-04-22T10:07:50;99917.19;;;14.28;100.00
27334;BME280;14817;57.104;-2.094;2023-04-22T10:10:18;99920.13;;;14.33;100.00
27334;BME280;14817;57.104;-2.094;2023-04-22T10:12:46;99908.72;;;14.53;100.00
27334;BME280;14817;57.104;-2.094;2023-04-22T10:15:14;99904.19;;;13.95;100.00
27334;BME280;14817;57.104;-2.094;2023-04-22T10:17:41;99903.63;;;13.63;100.00
27334;BME280;14817;57.104;-2.094;2023-04-22T10:20:12;99906.72;;;14.18;100.00
27334;BME280;14817;57.104;-2.094;2023-04-22T10:22:42;99909.41;;;13.97;100.00
27334;BME280;14817;57.104;-2.094;2023-04-22T10:25:19;99914.47;;;14.06;100.00
27334;BME280;14817;57.104;-2.094;2023-04-22T10:28:00;99917.03;;;14.51;100.00
27334;BME280;14817;57.104;-2.094;2023-04-22T10:30:29;99910.53;;;13.87;100.00
27334;BME280;14817;57.104;-2.094;2023-04-22T10:38:39;99904.97;;;14.68;100.00
27334;BME280;14817;57.104;-2.094;2023-04-22T10:41:12;99884.28;;;14.54;100.00
27334;BME280;14817;57.104;-2.094;2023-04-22T10:43:55;99887.16;;;14.53;100.00
27334;BME280;14817;57.104;-2.094;2023-04-22T10:49:20;99878.06;;;14.54;100.00
27334;BME280;14817;57.104;-2.094;2023-04-22T10:51:52;99885.19;;;14.40;100.00
27334;BME280;14817;57.104;-2.094;2023-04-22T10:57:05;99883.69;;;14.80;100.00
27334;BME280;14817;57.104;-2.094;2023-04-22T10:59:45;99876.78;;;14.06;100.00
27334;BME280;14817;57.104;-2.094;2023-04-22T11:02:16;99874.03;;;13.19;100.00
27334;BME280;14817;57.104;-2.094;2023-04-22T11:04:43;99864.41;;;13.39;100.00
27334;BME280;14817;57.104;-2.094;2023-04-22T11:09:51;99870.59;;;13.10;100.00
27334;BME280;14817;57.104;-2.094;2023-04-22T11:15:16;99859.97;;;12.64;100.00
27334;BME280;14817;57.104;-2.094;2023-04-22T11:17:46;99859.88;;;12.34;100.00
27334;BME280;14817;57.104;-2.094;2023-04-22T11:20:14;99854.41;;;12.04;100.00
27334;BME280;14817;57.104;-2.094;2023-04-22T11:22:51;99851.59;;;11.67;100.00
27334;BME280;14817;57.104;-2.094;2023-04-22T11:25:19;99835.38;;;11.91;100.00
27334;BME280;14817;57.104;-2.094;2023-04-22T11:27:46;99840.59;;;11.93;100.00
27334;BME280;14817;57.104;-2.094;2023-04-22T11:30:21;99833.34;;;11.62;100.00
27334;BME280;14817;57.104;-2.094;2023-04-22T11:32:50;99831.56;;;11.77;100.00
27334;BME280;14817;57.104;-2.094;2023-04-22T11:35:21;99826.84;;;12.11;100.00
27334;BME280;14817;57.104;-2.094;2023-04-22T11:37:49;99826.22;;;11.46;100.00
27334;BME280;14817;57.104;-2.094;2023-04-22T11:40:21;99816.53;;;11.37;100.00
27334;BME280;14817;57.104;-2.094;2023-04-22T11:43:00;99820.47;;;11.57;100.00
27334;BME280;14817;57.104;-2.094;2023-04-22T11:45:29;99813.03;;;11.36;100.00
27334;BME280;14817;57.104;-2.094;2023-04-22T11:47:56;99804.63;;;11.08;100.00
27334;BME280;14817;57.104;-2.094;2023-04-22T11:50:26;99802.19;;;11.30;100.00
27334;BME280;14817;57.104;-2.094;2023-04-22T11:53:03;99808.72;;;11.58;100.00
27334;BME280;14817;57.104;-2.094;2023-04-22T11:55:36;99800.13;;;11.40;100.00
27334;BME280;14817;57.104;-2.094;2023-04-22T12:00:48;99801.22;;;11.22;100.00
27334;BME280;14817;57.104;-2.094;2023-04-22T12:03:18;99792.41;;;11.06;100.00
27334;BME280;14817;57.104;-2.094;2023-04-22T12:05:50;99797.06;;;11.43;100.00
27334;BME280;14817;57.104;-2.094;2023-04-22T12:08:22;99790.06;;;11.42;100.00
27334;BME280;14817;57.104;-2.094;2023-04-22T12:10:59;99791.53;;;11.13;100.00
27334;BME280;14817;57.104;-2.094;2023-04-22T12:13:29;99785.69;;;11.10;100.00
27334;BME280;14817;57.104;-2.094;2023-04-22T12:16:02;99774.34;;;10.99;100.00
27334;BME280;14817;57.104;-2.094;2023-04-22T12:18:35;99779.09;;;10.73;100.00
27334;BME280;14817;57.104;-2.094;2023-04-22T12:26:18;99752.06;;;10.99;100.00
27334;BME280;14817;57.104;-2.094;2023-04-22T12:28:46;99748.44;;;11.23;100.00
27334;BME280;14817;57.104;-2.094;2023-04-22T12:31:14;99747.00;;;11.12;100.00
27334;BME280;14817;57.104;-2.094;2023-04-22T12:33:41;99744.13;;;11.14;100.00
27334;BME280;14817;57.104;-2.094;2023-04-22T12:36:08;99744.72;;;11.24;100.00
27334;BME280;14817;57.104;-2.094;2023-04-22T12:38:36;99740.03;;;11.26;100.00
27334;BME280;14817;57.104;-2.094;2023-04-22T12:41:04;99742.59;;;11.19;100.00
27334;BME280;14817;57.104;-2.094;2023-04-22T12:43:31;99739.78;;;11.44;100.00
27334;BME280;14817;57.104;-2.094;2023-04-22T12:46:02;99727.47;;;10.95;100.00
27334;BME280;14817;57.104;-2.094;2023-04-22T12:48:29;99724.06;;;11.10;100.00
27334;BME280;14817;57.104;-2.094;2023-04-22T12:50:56;99722.22;;;11.10;100.00
27334;BME280;14817;57.104;-2.094;2023-04-22T12:53:26;99726.75;;;11.10;100.00
27334;BME280;14817;57.104;-2.094;2023-04-22T12:55:54;99719.66;;;11.17;100.00
27334;BME280;14817;57.104;-2.094;2023-04-22T12:58:21;99726.28;;;10.98;100.00
27334;BME280;14817;57.104;-2.094;2023-04-22T13:00:48;99724.28;;;10.92;100.00
27334;BME280;14817;57.104;-2.094;2023-04-22T13:03:14;99730.19;;;10.87;100.00
27334;BME280;14817;57.104;-2.094;2023-04-22T13:05:43;99748.44;;;10.83;100.00
27334;BME280;14817;57.104;-2.094;2023-04-22T13:08:10;99733.34;;;10.91;100.00
27334;BME280;14817;57.104;-2.094;2023-04-22T13:10:37;99728.97;;;10.98;100.00
27334;BME280;14817;57.104;-2.094;2023-04-22T13:13:04;99746.31;;;11.10;100.00
27334;BME280;14817;57.104;-2.094;2023-04-22T13:15:46;99744.22;;;10.97;100.00